createdAt,value
2023-02-22T00:00:23.688Z,0.77
2023-02-22T00:02:51.951Z,0.60
2023-02-22T00:05:21.058Z,0.75
2023-02-22T00:07:49.641Z,0.60
2023-02-22T00:10:20.397Z,0.98
2023-02-22T00:12:49.547Z,0.60
2023-02-22T00:15:19.690Z,0.98
2023-02-22T00:17:47.914Z,0.60
2023-02-22T00:20:19.488Z,1.15
2023-02-22T00:22:48.906Z,0.80
2023-02-22T00:25:18.292Z,0.85
2023-02-22T00:27:47.943Z,1.35
2023-02-22T00:30:19.042Z,0.95
2023-02-22T00:32:48.839Z,0.85
2023-02-22T00:35:17.819Z,0.88
2023-02-22T00:37:48.810Z,2.28
2023-02-22T00:40:18.792Z,1.08
2023-02-22T00:42:47.378Z,1.20
2023-02-22T00:45:16.127Z,1.45
2023-02-22T00:47:44.792Z,1.02
2023-02-22T00:50:14.713Z,1.50
2023-02-22T00:52:43.140Z,1.15
2023-02-22T00:55:12.804Z,1.17
2023-02-22T00:57:41.036Z,1.05
2023-02-22T01:00:12.842Z,1.88
2023-02-22T01:02:41.492Z,0.85
2023-02-22T01:05:10.377Z,1.13
2023-02-22T01:07:39.954Z,1.20
2023-02-22T01:10:09.194Z,0.80
2023-02-22T01:12:38.124Z,1.05
2023-02-22T01:15:10.318Z,1.52
2023-02-22T01:17:39.106Z,0.98
2023-02-22T01:20:12.581Z,1.23
2023-02-22T01:22:42.495Z,1.10
2023-02-22T01:25:10.827Z,0.95
2023-02-22T01:27:39.613Z,0.93
2023-02-22T01:30:09.476Z,0.60
2023-02-22T01:32:38.172Z,0.82
2023-02-22T01:35:08.458Z,0.85
2023-02-22T01:37:36.808Z,1.45
2023-02-22T01:40:08.105Z,0.85
2023-02-22T01:42:36.972Z,1.05
2023-02-22T01:45:23.802Z,0.82
2023-02-22T01:47:52.044Z,1.70
2023-02-22T01:50:20.277Z,1.40
2023-02-22T01:52:48.579Z,0.88
2023-02-22T01:55:19.303Z,1.42
2023-02-22T01:57:48.082Z,1.00
2023-02-22T02:00:20.470Z,1.20
2023-02-22T02:02:51.290Z,1.00
2023-02-22T02:05:19.803Z,1.13
2023-02-22T02:07:49.319Z,0.70
2023-02-22T02:10:18.997Z,0.95
2023-02-22T02:12:49.156Z,1.17
2023-02-22T02:15:21.785Z,1.70
2023-02-22T02:17:50.544Z,0.82
2023-02-22T02:20:21.210Z,1.08
2023-02-22T02:22:51.637Z,1.13
2023-02-22T02:25:38.784Z,1.10
2023-02-22T02:28:30.762Z,0.52
2023-02-22T02:31:07.777Z,0.93
2023-02-22T02:33:42.859Z,1.02
2023-02-22T02:36:16.313Z,1.10
2023-02-22T02:38:47.428Z,0.60
2023-02-22T02:41:18.287Z,0.60
2023-02-22T02:43:49.483Z,1.30
2023-02-22T02:46:20.015Z,0.70
2023-02-22T02:48:54.764Z,0.68
2023-02-22T02:51:24.295Z,1.00
2023-02-22T02:53:53.101Z,0.50
2023-02-22T02:56:23.316Z,0.80
2023-02-22T02:58:52.789Z,0.98
2023-02-22T03:01:24.411Z,0.98
2023-02-22T03:03:58.077Z,1.10
2023-02-22T03:06:41.228Z,1.27
2023-02-22T03:09:13.673Z,0.75
2023-02-22T03:11:48.350Z,0.90
2023-02-22T03:14:19.596Z,1.52
2023-02-22T03:16:50.171Z,1.00
2023-02-22T03:19:22.287Z,1.05
2023-02-22T03:21:57.248Z,1.17
2023-02-22T03:24:29.289Z,0.88
2023-02-22T03:27:02.786Z,1.45
2023-02-22T03:29:36.649Z,0.50
2023-02-22T03:32:06.906Z,0.63
2023-02-22T03:34:37.824Z,0.68
2023-02-22T03:37:09.131Z,0.63
2023-02-22T03:39:39.105Z,0.95
2023-02-22T03:42:10.633Z,1.08
2023-02-22T03:44:40.392Z,0.30
2023-02-22T03:47:10.214Z,1.42
2023-02-22T03:49:42.591Z,1.45
2023-02-22T03:52:12.735Z,0.30
2023-02-22T03:54:41.416Z,0.50
2023-02-22T03:57:12.302Z,0.32
2023-02-22T03:59:41.126Z,0.45
2023-02-22T04:02:09.440Z,0.50
2023-02-22T04:04:37.773Z,0.40
2023-02-22T04:07:07.410Z,0.38
2023-02-22T04:09:35.716Z,0.88
2023-02-22T04:12:04.153Z,0.60
2023-02-22T04:14:32.369Z,1.05
2023-02-22T04:17:00.639Z,0.45
2023-02-22T04:19:28.869Z,0.85
2023-02-22T04:21:57.089Z,0.40
2023-02-22T04:24:27.109Z,0.88
2023-02-22T04:26:56.169Z,0.25
2023-02-22T04:29:24.409Z,0.95
2023-02-22T04:31:52.664Z,0.63
2023-02-22T04:34:20.935Z,0.50
2023-02-22T04:36:49.183Z,0.52
2023-02-22T04:39:17.527Z,0.77
2023-02-22T04:41:47.510Z,0.25
2023-02-22T04:44:15.833Z,0.47
2023-02-22T04:46:44.062Z,0.55
2023-02-22T04:49:12.373Z,0.40
2023-02-22T04:51:41.220Z,0.77
2023-02-22T04:54:09.488Z,0.68
2023-02-22T04:56:37.737Z,1.15
2023-02-22T04:59:07.353Z,0.38
2023-02-22T05:01:36.168Z,1.05
2023-02-22T05:04:04.671Z,0.55
2023-02-22T05:06:32.943Z,0.50
2023-02-22T05:09:01.284Z,1.15
2023-02-22T05:11:29.595Z,0.90
2023-02-22T05:13:58.073Z,0.55
2023-02-22T05:16:27.675Z,0.70
2023-02-22T05:18:55.886Z,1.02
2023-02-22T05:21:24.348Z,0.75
2023-02-22T05:23:52.600Z,1.00
2023-02-22T05:26:20.858Z,1.00
2023-02-22T05:28:49.137Z,0.88
2023-02-22T05:31:17.762Z,0.95
2023-02-22T05:33:48.512Z,1.05
2023-02-22T05:36:17.393Z,0.63
2023-02-22T05:38:45.700Z,0.60
2023-02-22T05:41:14.551Z,1.15
2023-02-22T05:43:43.369Z,0.82
2023-02-22T05:46:11.670Z,0.73
2023-02-22T05:48:39.918Z,0.77
2023-02-22T05:51:10.695Z,0.85
2023-02-22T05:53:38.982Z,0.50
2023-02-22T05:56:07.783Z,1.10
2023-02-22T05:58:36.031Z,0.85
2023-02-22T06:01:04.280Z,1.02
2023-02-22T06:03:32.510Z,0.52
2023-02-22T06:06:00.823Z,0.45
2023-02-22T06:08:30.420Z,1.50
2023-02-22T06:10:58.706Z,0.85
2023-02-22T06:13:27.180Z,1.40
2023-02-22T06:15:55.454Z,0.85
2023-02-22T06:18:26.646Z,0.57
2023-02-22T06:20:54.904Z,0.80
2023-02-22T06:23:23.210Z,1.23
2023-02-22T06:25:52.937Z,1.30
2023-02-22T06:28:21.407Z,0.77
2023-02-22T06:30:49.691Z,1.55
2023-02-22T06:33:18.058Z,1.20
2023-02-22T06:35:46.835Z,0.77
2023-02-22T06:38:22.323Z,1.23
2023-02-22T06:40:50.585Z,0.70
2023-02-22T06:43:20.308Z,0.32
2023-02-22T06:45:48.714Z,0.95
2023-02-22T06:48:17.116Z,0.50
2023-02-22T06:50:45.389Z,1.23
2023-02-22T06:53:13.681Z,0.88
2023-02-22T06:55:42.018Z,0.40
2023-02-22T06:58:10.368Z,0.88
2023-02-22T07:00:40.090Z,0.63
2023-02-22T07:03:08.375Z,0.70
2023-02-22T07:05:36.664Z,0.88
2023-02-22T07:08:06.083Z,1.15
2023-02-22T07:10:35.338Z,0.30
2023-02-22T07:13:03.899Z,0.85
2023-02-22T07:15:32.910Z,0.65
2023-02-22T07:18:02.669Z,0.60
2023-02-22T07:20:31.840Z,0.32
2023-02-22T07:23:00.089Z,0.55
2023-02-22T07:25:31.456Z,0.35
2023-02-22T07:27:59.829Z,0.70
2023-02-22T07:30:31.123Z,0.50
2023-02-22T07:33:00.032Z,0.52
2023-02-22T07:35:30.599Z,0.68
2023-02-22T07:37:59.154Z,1.63
2023-02-22T07:40:28.079Z,0.80
2023-02-22T07:42:57.566Z,0.90
2023-02-22T07:45:26.649Z,0.85
2023-02-22T07:47:54.975Z,0.73
2023-02-22T07:50:24.298Z,1.08
2023-02-22T07:52:54.887Z,0.45
2023-02-22T07:55:24.150Z,0.90
2023-02-22T07:57:53.311Z,1.05
2023-02-22T08:00:24.440Z,1.40
2023-02-22T08:02:53.256Z,1.25
2023-02-22T08:05:22.034Z,0.63
2023-02-22T08:07:50.570Z,1.15
2023-02-22T08:10:20.911Z,1.10
2023-02-22T08:12:49.433Z,0.98
2023-02-22T08:15:19.241Z,1.10
2023-02-22T08:17:47.523Z,1.52
2023-02-22T08:20:15.901Z,1.40
2023-02-22T08:22:45.198Z,1.80
2023-02-22T08:25:15.464Z,0.68
2023-02-22T08:27:45.277Z,0.70
2023-02-22T08:30:15.768Z,0.68
2023-02-22T08:32:44.145Z,0.77
2023-02-22T08:35:13.675Z,1.10
2023-02-22T08:37:43.980Z,0.50
2023-02-22T08:40:14.720Z,0.55
2023-02-22T08:42:44.898Z,0.20
2023-02-22T08:45:14.307Z,0.65
2023-02-22T08:47:42.785Z,0.55
2023-02-22T08:50:12.292Z,0.82
2023-02-22T08:52:40.616Z,0.30
2023-02-22T08:55:09.092Z,0.50
2023-02-22T08:57:37.394Z,0.60
2023-02-22T09:00:07.756Z,0.73
2023-02-22T09:02:36.067Z,0.85
2023-02-22T09:05:05.764Z,0.63
2023-02-22T09:07:34.061Z,0.82
2023-02-22T09:10:02.386Z,0.93
2023-02-22T09:12:31.397Z,0.70
2023-02-22T09:14:59.920Z,0.38
2023-02-22T09:17:30.334Z,0.65
2023-02-22T09:19:58.792Z,0.40
2023-02-22T09:22:27.070Z,0.50
2023-02-22T09:24:57.006Z,0.73
2023-02-22T09:27:28.279Z,0.95
2023-02-22T09:29:57.273Z,0.40
2023-02-22T09:32:27.965Z,0.50
2023-02-22T09:34:57.946Z,0.40
2023-02-22T09:37:26.286Z,0.82
2023-02-22T09:39:54.807Z,0.60
2023-02-22T09:42:27.662Z,0.55
2023-02-22T09:45:00.514Z,0.40
2023-02-22T09:47:35.794Z,0.65
2023-02-22T09:50:15.499Z,0.45
2023-02-22T09:52:49.489Z,0.43
2023-02-22T09:55:25.525Z,0.88
2023-02-22T09:57:55.497Z,0.50
2023-02-22T10:00:29.299Z,0.85
2023-02-22T10:03:02.861Z,0.85
2023-02-22T10:05:34.653Z,0.52
2023-02-22T10:08:06.128Z,0.68
2023-02-22T10:10:35.533Z,0.40
2023-02-22T10:13:07.421Z,0.30
2023-02-22T10:15:48.009Z,0.28
2023-02-22T10:18:28.457Z,0.30
2023-02-22T10:20:59.801Z,0.47
2023-02-22T10:23:32.164Z,0.40
2023-02-22T10:26:06.260Z,0.77
2023-02-22T10:28:38.895Z,0.73
2023-02-22T10:31:09.204Z,0.38
2023-02-22T10:33:40.471Z,0.50
2023-02-22T10:36:17.558Z,0.40
2023-02-22T10:38:50.004Z,0.70
2023-02-22T10:41:23.366Z,0.40
2023-02-22T10:43:52.082Z,0.65
2023-02-22T10:46:22.810Z,0.45
2023-02-22T10:48:53.254Z,0.30
2023-02-22T10:51:22.989Z,1.08
2023-02-22T10:53:57.947Z,0.90
2023-02-22T10:58:57.457Z,0.40
2023-02-22T11:01:27.706Z,0.85
2023-02-22T11:04:00.577Z,0.50
2023-02-22T11:06:30.723Z,0.70
2023-02-22T11:09:11.325Z,0.30
2023-02-22T11:11:40.270Z,0.60
2023-02-22T11:14:10.732Z,0.30
2023-02-22T11:16:40.018Z,0.63
2023-02-22T11:19:13.316Z,0.28
2023-02-22T11:21:43.422Z,0.43
2023-02-22T11:24:12.481Z,0.30
2023-02-22T11:26:43.722Z,0.60
2023-02-22T11:29:13.669Z,0.40
2023-02-22T11:31:46.118Z,0.47
2023-02-22T11:34:29.319Z,0.65
2023-02-22T11:36:59.672Z,0.47
2023-02-22T11:39:29.043Z,0.63
2023-02-22T11:41:57.594Z,0.70
2023-02-22T11:44:27.598Z,0.38
2023-02-22T11:46:56.746Z,0.17
2023-02-22T11:49:25.774Z,0.30
2023-02-22T11:52:01.040Z,0.50
2023-02-22T11:54:40.806Z,0.20
2023-02-22T11:57:17.407Z,0.40
2023-02-22T11:59:49.004Z,0.20
2023-02-22T12:02:25.862Z,0.20
2023-02-22T12:05:01.623Z,0.20
2023-02-22T12:07:38.164Z,0.30
2023-02-22T12:10:13.543Z,0.30
2023-02-22T12:12:48.839Z,0.30
2023-02-22T12:15:20.720Z,0.25
2023-02-22T12:18:00.077Z,0.30
2023-02-22T12:20:32.521Z,0.30
2023-02-22T12:23:12.746Z,0.20
2023-02-22T12:25:46.006Z,0.10
2023-02-22T12:28:24.548Z,0.55
2023-02-22T12:30:55.497Z,0.60
2023-02-22T12:33:27.635Z,0.30
2023-02-22T12:35:57.592Z,0.45
2023-02-22T12:38:31.175Z,0.82
2023-02-22T12:41:05.241Z,0.55
2023-02-22T12:43:35.659Z,0.40
2023-02-22T12:46:06.599Z,0.40
2023-02-22T12:48:41.176Z,0.30
2023-02-22T12:51:17.218Z,0.40
2023-02-22T12:53:52.645Z,0.30
2023-02-22T12:56:25.912Z,0.40
2023-02-22T12:58:58.821Z,0.25
2023-02-22T13:01:30.286Z,0.20
2023-02-22T13:04:05.746Z,0.65
2023-02-22T13:06:48.640Z,0.40
2023-02-22T13:09:27.902Z,0.40
2023-02-22T13:12:01.294Z,0.40
2023-02-22T13:14:35.620Z,0.32
2023-02-22T13:17:07.874Z,0.20
2023-02-22T13:19:40.729Z,0.30
2023-02-22T13:22:12.125Z,0.47
2023-02-22T13:24:54.836Z,0.30
2023-02-22T13:27:27.271Z,0.22
2023-02-22T13:29:59.857Z,0.10
2023-02-22T13:32:35.276Z,0.30
2023-02-22T13:35:16.523Z,0.40
2023-02-22T13:37:59.914Z,0.40
2023-02-22T13:40:55.093Z,0.40
2023-02-22T13:43:30.652Z,0.52
2023-02-22T13:46:18.064Z,0.20
2023-02-22T13:49:01.460Z,0.65
2023-02-22T13:51:47.573Z,0.10
2023-02-22T13:54:19.626Z,0.50
2023-02-22T13:56:49.054Z,0.20
2023-02-22T13:59:26.845Z,0.30
2023-02-22T14:01:55.407Z,0.20
2023-02-22T14:04:34.736Z,0.20
2023-02-22T14:07:03.653Z,0.17
2023-02-22T14:09:45.633Z,0.25
2023-02-22T14:12:28.951Z,0.20
2023-02-22T14:15:29.262Z,0.20
2023-02-22T14:18:00.948Z,0.10
2023-02-22T14:20:35.213Z,0.30
2023-02-22T14:23:33.915Z,0.20
2023-02-22T14:26:12.093Z,0.20
2023-02-22T14:28:42.284Z,0.30
2023-02-22T14:31:25.741Z,0.20
2023-02-22T14:34:07.320Z,0.20
2023-02-22T14:36:38.230Z,0.38
2023-02-22T14:39:15.748Z,0.40
2023-02-22T14:41:47.954Z,0.10
2023-02-22T14:44:16.955Z,0.30
2023-02-22T14:46:50.149Z,0.20
2023-02-22T14:49:21.763Z,0.17
2023-02-22T14:51:56.356Z,0.20
2023-02-22T14:54:30.471Z,0.30
2023-02-22T14:57:12.882Z,0.30
2023-02-22T14:59:49.270Z,0.10
2023-02-22T15:02:22.708Z,0.25
2023-02-22T15:04:54.837Z,0.20
2023-02-22T15:07:27.345Z,0.30
2023-02-22T15:10:17.712Z,0.50
2023-02-22T15:12:52.594Z,0.32
2023-02-22T15:15:22.712Z,0.25
2023-02-22T15:17:56.295Z,0.30
2023-02-22T15:20:25.341Z,0.43
2023-02-22T15:22:59.678Z,0.10
2023-02-22T15:25:30.721Z,0.40
2023-02-22T15:28:03.090Z,0.40
2023-02-22T15:30:33.008Z,0.40
2023-02-22T15:33:14.834Z,0.43
2023-02-22T15:35:43.245Z,0.35
2023-02-22T15:38:21.506Z,0.30
2023-02-22T15:41:00.606Z,0.20
2023-02-22T15:43:30.026Z,0.73
2023-02-22T15:45:59.993Z,0.40
2023-02-22T15:48:31.827Z,0.50
2023-02-22T15:51:06.642Z,0.40
2023-02-22T15:53:44.967Z,0.47
2023-02-22T15:56:15.804Z,0.50
2023-02-22T15:58:45.704Z,0.70
2023-02-22T16:01:17.798Z,0.75
2023-02-22T16:03:49.342Z,0.90
2023-02-22T16:06:33.639Z,0.40
2023-02-22T16:09:03.033Z,0.60
2023-02-22T16:11:33.095Z,0.82
2023-02-22T16:14:02.500Z,1.00
2023-02-22T16:16:32.295Z,0.50
2023-02-22T16:19:19.695Z,0.55
2023-02-22T16:21:58.045Z,0.40
2023-02-22T16:24:30.265Z,0.57
2023-02-22T16:27:17.226Z,0.50
2023-02-22T16:29:45.587Z,0.50
2023-02-22T16:32:15.457Z,0.60
2023-02-22T16:34:43.948Z,0.70
2023-02-22T16:37:23.476Z,0.73
2023-02-22T16:39:53.068Z,0.77
2023-02-22T16:42:24.207Z,0.65
2023-02-22T16:44:53.581Z,0.70
2023-02-22T16:47:21.932Z,0.70
2023-02-22T16:49:52.743Z,0.65
2023-02-22T16:52:22.677Z,0.73
2023-02-22T16:54:53.709Z,0.32
2023-02-22T16:57:23.195Z,0.60
2023-02-22T16:59:52.914Z,0.50
2023-02-22T17:02:21.471Z,1.10
2023-02-22T17:04:50.393Z,5.72
2023-02-22T17:07:20.467Z,20.38
2023-02-22T17:09:51.003Z,8.68
2023-02-22T17:12:19.601Z,3.25
2023-02-22T17:14:48.055Z,2.30
2023-02-22T17:17:16.343Z,1.27
2023-02-22T17:19:44.644Z,0.63
2023-02-22T17:22:18.444Z,0.70
2023-02-22T17:24:46.972Z,0.40
2023-02-22T17:27:16.716Z,1.00
2023-02-22T17:29:45.492Z,0.43
2023-02-22T17:32:14.335Z,0.52
2023-02-22T17:34:42.669Z,0.70
2023-02-22T17:37:10.962Z,0.55
2023-02-22T17:39:39.238Z,0.98
2023-02-22T17:42:07.530Z,0.55
2023-02-22T17:44:37.273Z,0.38
2023-02-22T17:47:06.127Z,0.85
2023-02-22T17:49:34.674Z,1.08
2023-02-22T17:52:06.268Z,0.70
2023-02-22T17:54:34.931Z,1.00
2023-02-22T17:57:03.409Z,0.85
2023-02-22T17:59:31.948Z,0.60
2023-02-22T18:02:03.230Z,1.50
2023-02-22T18:04:33.980Z,0.95
2023-02-22T18:07:02.364Z,0.40
2023-02-22T18:09:30.834Z,0.68
2023-02-22T18:11:59.146Z,1.42
2023-02-22T18:14:27.752Z,0.77
2023-02-22T18:16:56.075Z,0.95
2023-02-22T18:19:25.689Z,1.10
2023-02-22T18:21:53.990Z,1.00
2023-02-22T18:24:22.331Z,0.70
2023-02-22T18:26:50.857Z,0.90
2023-02-22T18:29:19.185Z,0.73
2023-02-22T18:31:47.537Z,1.15
2023-02-22T18:34:17.553Z,0.82
2023-02-22T18:36:47.388Z,0.60
2023-02-22T18:39:15.724Z,0.88
2023-02-22T18:41:45.737Z,0.50
2023-02-22T18:44:14.147Z,0.43
2023-02-22T18:46:43.452Z,0.82
2023-02-22T18:49:13.811Z,0.45
2023-02-22T18:51:43.611Z,0.63
2023-02-22T18:54:14.576Z,0.60
2023-02-22T18:56:42.901Z,0.60
2023-02-22T18:59:12.193Z,0.57
2023-02-22T19:01:41.229Z,0.50
2023-02-22T19:04:11.955Z,0.30
2023-02-22T19:06:40.549Z,0.43
2023-02-22T19:09:09.371Z,0.63
2023-02-22T19:11:40.537Z,0.50
2023-02-22T19:14:09.749Z,0.63
2023-02-22T19:16:38.206Z,0.57
2023-02-22T19:19:06.608Z,0.60
2023-02-22T19:21:35.092Z,0.85
2023-02-22T19:24:04.505Z,0.95
2023-02-22T19:26:32.998Z,0.63
2023-02-22T19:29:06.314Z,0.80
2023-02-22T19:31:35.315Z,0.40
2023-02-22T19:34:04.701Z,1.05
2023-02-22T19:36:33.743Z,0.65
2023-02-22T19:39:02.647Z,0.60
2023-02-22T19:41:31.384Z,0.80
2023-02-22T19:44:00.260Z,0.70
2023-02-22T19:46:30.028Z,0.55
2023-02-22T19:48:58.495Z,0.70
2023-02-22T19:51:28.053Z,0.40
2023-02-22T19:53:58.741Z,0.60
2023-02-22T19:56:28.406Z,0.88
2023-02-22T19:58:57.650Z,1.30
2023-02-22T20:01:27.062Z,0.63
2023-02-22T20:03:59.907Z,0.90
2023-02-22T20:06:30.746Z,2.60
2023-02-22T20:08:59.162Z,1.90
2023-02-22T20:11:27.572Z,2.08
2023-02-22T20:13:56.527Z,1.65
2023-02-22T20:16:25.238Z,3.95
2023-02-22T20:18:54.473Z,1.90
2023-02-22T20:21:27.676Z,1.65
2023-02-22T20:23:59.154Z,2.10
2023-02-22T20:26:29.138Z,1.33
2023-02-22T20:28:57.845Z,1.45
2023-02-22T20:31:26.603Z,2.35
2023-02-22T20:33:56.021Z,1.70
2023-02-22T20:36:26.041Z,2.28
2023-02-22T20:38:54.931Z,1.83
2023-02-22T20:41:24.880Z,1.98
2023-02-22T20:43:53.584Z,3.50
2023-02-22T20:46:21.918Z,2.80
2023-02-22T20:48:50.204Z,1.85
2023-02-22T20:51:18.783Z,2.08
2023-02-22T20:53:49.012Z,1.88
2023-02-22T20:56:18.051Z,1.92
2023-02-22T20:58:46.380Z,2.33
2023-02-22T21:01:16.983Z,2.45
2023-02-22T21:03:45.620Z,2.20
2023-02-22T21:06:16.502Z,2.28
2023-02-22T21:08:45.334Z,1.90
2023-02-22T21:11:15.694Z,3.17
2023-02-22T21:13:44.019Z,1.70
2023-02-22T21:16:17.111Z,2.35
2023-02-22T21:18:45.409Z,3.42
2023-02-22T21:21:14.521Z,2.33
2023-02-22T21:23:43.112Z,1.92
2023-02-22T21:26:15.742Z,2.10
2023-02-22T21:28:51.411Z,2.10
2023-02-22T21:31:21.732Z,2.75
2023-02-22T21:33:51.204Z,2.55
2023-02-22T21:36:20.020Z,1.75
2023-02-22T21:38:53.389Z,2.53
2023-02-22T21:41:23.690Z,2.45
2023-02-22T21:43:53.584Z,1.85
2023-02-22T21:46:22.618Z,2.40
2023-02-22T21:48:51.346Z,2.20
2023-02-22T21:51:20.440Z,1.63
2023-02-22T21:53:49.277Z,2.10
2023-02-22T21:56:18.958Z,2.40
2023-02-22T21:58:47.706Z,2.67
2023-02-22T22:01:18.310Z,2.15
2023-02-22T22:03:46.874Z,2.00
2023-02-22T22:06:15.532Z,3.38
2023-02-22T22:08:46.067Z,2.83
2023-02-22T22:11:17.891Z,2.13
2023-02-22T22:13:47.881Z,2.05
2023-02-22T22:16:18.519Z,1.95
2023-02-22T22:18:47.361Z,1.83
2023-02-22T22:21:17.754Z,2.50
2023-02-22T22:23:46.964Z,2.63
2023-02-22T22:26:16.324Z,2.95
2023-02-22T22:28:46.118Z,2.80
2023-02-22T22:31:14.971Z,2.30
2023-02-22T22:33:45.017Z,2.08
2023-02-22T22:36:14.593Z,1.60
2023-02-22T22:38:43.156Z,2.50
2023-02-22T22:41:13.213Z,2.78
2023-02-22T22:43:42.450Z,2.53
2023-02-22T22:46:10.769Z,2.20
2023-02-22T22:48:39.084Z,1.90
2023-02-22T22:51:09.980Z,3.10
2023-02-22T22:53:39.027Z,2.75
2023-02-22T22:56:14.157Z,1.90
2023-02-22T22:58:43.875Z,2.10
2023-02-22T23:01:18.103Z,2.58
2023-02-22T23:03:54.929Z,2.20
2023-02-22T23:06:26.276Z,3.22
2023-02-22T23:09:00.004Z,2.83
2023-02-22T23:11:29.387Z,2.63
2023-02-22T23:14:00.142Z,3.45
2023-02-22T23:16:28.828Z,2.95
2023-02-22T23:18:58.615Z,1.70
2023-02-22T23:21:28.196Z,2.55
2023-02-22T23:23:58.191Z,2.45
2023-02-22T23:26:26.805Z,2.15
2023-02-22T23:28:56.076Z,2.60
2023-02-22T23:31:24.449Z,2.25
2023-02-22T23:33:52.714Z,3.00
2023-02-22T23:36:21.334Z,3.10
2023-02-22T23:38:50.922Z,2.25
2023-02-22T23:41:19.662Z,2.85
2023-02-22T23:43:48.418Z,3.10
2023-02-22T23:46:18.565Z,2.22
2023-02-22T23:48:50.791Z,1.73
2023-02-22T23:51:20.660Z,2.85
2023-02-22T23:53:49.573Z,2.70
2023-02-22T23:56:21.932Z,1.67
2023-02-22T23:58:51.826Z,4.50
